createdAt,value
2022-12-01T00:01:40.596Z,13.43
2022-12-01T00:04:09.135Z,11.02
2022-12-01T00:06:38.070Z,12.25
2022-12-01T00:09:24.328Z,12.77
2022-12-01T00:11:54.235Z,12.63
2022-12-01T00:14:22.761Z,11.73
2022-12-01T00:16:51.287Z,13.45
2022-12-01T00:19:19.842Z,9.63
2022-12-01T00:21:48.338Z,11.85
2022-12-01T00:24:16.864Z,9.77
2022-12-01T00:26:45.407Z,10.25
2022-12-01T00:29:15.313Z,8.75
2022-12-01T00:31:44.011Z,9.43
2022-12-01T00:34:23.225Z,9.50
2022-12-01T00:36:52.627Z,10.88
2022-12-01T00:39:21.153Z,12.02
2022-12-01T00:41:49.696Z,10.90
2022-12-01T00:44:19.587Z,12.18
2022-12-01T00:46:50.230Z,11.95
2022-12-01T00:49:18.894Z,10.63
2022-12-01T00:51:47.459Z,11.77
2022-12-01T00:54:16.020Z,10.68
2022-12-01T00:56:44.575Z,9.77
2022-12-01T00:59:13.362Z,10.27
2022-12-01T01:01:45.020Z,9.32
2022-12-01T01:04:13.512Z,11.68
2022-12-01T01:06:43.338Z,12.82
2022-12-01T01:09:12.147Z,12.13
2022-12-01T01:11:40.750Z,13.35
2022-12-01T01:14:09.692Z,14.32
2022-12-01T01:16:38.372Z,16.48
2022-12-01T01:19:08.340Z,13.35
2022-12-01T01:21:37.090Z,14.25
2022-12-01T01:24:06.372Z,16.20
2022-12-01T01:26:35.509Z,15.82
2022-12-01T01:29:06.356Z,15.82
2022-12-01T01:31:37.769Z,16.08
2022-12-01T01:34:06.321Z,17.25
2022-12-01T01:36:36.107Z,17.67
2022-12-01T01:39:04.802Z,18.95
2022-12-01T01:41:33.308Z,14.00
2022-12-01T01:44:03.015Z,17.10
2022-12-01T01:46:33.153Z,18.50
2022-12-01T01:49:02.939Z,18.17
2022-12-01T01:51:37.895Z,16.88
2022-12-01T01:54:10.637Z,18.30
2022-12-01T01:56:39.119Z,18.08
2022-12-01T01:59:07.625Z,16.60
2022-12-01T02:01:36.214Z,23.42
2022-12-01T02:04:05.231Z,15.60
2022-12-01T02:06:34.043Z,19.05
2022-12-01T02:09:04.050Z,18.77
2022-12-01T02:12:02.686Z,17.40
2022-12-01T02:14:44.266Z,16.85
2022-12-01T02:17:23.545Z,17.80
2022-12-01T02:20:23.493Z,14.98
2022-12-01T02:23:09.541Z,16.63
2022-12-01T02:25:49.292Z,18.33
2022-12-01T02:28:41.274Z,19.17
2022-12-01T02:31:16.953Z,17.67
2022-12-01T02:33:54.227Z,14.52
2022-12-01T02:36:31.336Z,16.63
2022-12-01T02:39:07.037Z,16.83
2022-12-01T02:41:41.120Z,14.88
2022-12-01T02:44:17.920Z,19.17
2022-12-01T02:46:52.651Z,19.05
2022-12-01T02:49:27.015Z,14.48
2022-12-01T02:51:57.747Z,14.48
2022-12-01T02:54:30.958Z,15.82
2022-12-01T02:56:59.522Z,15.32
2022-12-01T02:59:28.109Z,14.73
2022-12-01T03:02:07.915Z,19.25
2022-12-01T03:04:46.824Z,17.25
2022-12-01T03:07:30.220Z,17.42
2022-12-01T03:10:07.255Z,15.50
2022-12-01T03:12:42.445Z,16.50
2022-12-01T03:15:14.058Z,14.52
2022-12-01T03:17:49.063Z,16.75
2022-12-01T03:20:21.622Z,19.00
2022-12-01T03:22:55.509Z,19.13
2022-12-01T03:25:27.051Z,16.48
2022-12-01T03:28:20.076Z,16.98
2022-12-01T03:30:47.570Z,17.75
2022-12-01T03:33:23.775Z,18.15
2022-12-01T03:35:56.832Z,20.40
2022-12-01T03:38:27.781Z,18.20
2022-12-01T03:41:00.188Z,17.75
2022-12-01T03:43:32.592Z,20.05
2022-12-01T03:46:07.496Z,18.70
2022-12-01T03:48:39.620Z,18.67
2022-12-01T03:51:15.328Z,18.83
2022-12-01T03:53:52.263Z,22.52
2022-12-01T03:56:24.566Z,21.00
2022-12-01T03:58:57.848Z,22.77
2022-12-01T04:01:28.215Z,20.30
2022-12-01T04:04:01.240Z,20.63
2022-12-01T04:06:29.931Z,29.10
2022-12-01T04:08:58.418Z,22.42
2022-12-01T04:11:41.241Z,21.42
2022-12-01T04:14:09.792Z,24.33
2022-12-01T04:16:38.307Z,27.08
2022-12-01T04:19:08.183Z,24.80
2022-12-01T04:21:36.699Z,27.85
2022-12-01T04:24:05.618Z,23.30
2022-12-01T04:26:36.587Z,29.95
2022-12-01T04:29:07.722Z,28.10
2022-12-01T04:31:36.903Z,24.88
2022-12-01T04:34:06.094Z,27.30
2022-12-01T04:36:36.353Z,24.50
2022-12-01T04:39:05.071Z,23.90
2022-12-01T04:41:33.533Z,27.63
2022-12-01T04:44:02.153Z,33.55
2022-12-01T04:46:30.770Z,29.65
2022-12-01T04:48:59.314Z,23.83
2022-12-01T04:51:27.823Z,23.85
2022-12-01T04:53:57.676Z,30.50
2022-12-01T04:56:26.215Z,26.98
2022-12-01T04:58:54.744Z,28.85
2022-12-01T05:01:23.293Z,25.10
2022-12-01T05:03:51.938Z,24.92
2022-12-01T05:06:22.289Z,24.98
2022-12-01T05:08:51.930Z,27.35
2022-12-01T05:11:21.909Z,28.30
2022-12-01T05:13:50.994Z,31.08
2022-12-01T05:16:21.371Z,33.90
2022-12-01T05:18:50.856Z,27.80
2022-12-01T05:21:18.766Z,28.70
2022-12-01T05:23:47.425Z,28.38
2022-12-01T05:26:15.983Z,24.75
2022-12-01T05:28:45.791Z,22.17
2022-12-01T05:31:14.324Z,26.48
2022-12-01T05:33:42.835Z,21.38
2022-12-01T05:36:11.746Z,22.10
2022-12-01T05:38:40.204Z,22.35
2022-12-01T05:41:10.299Z,25.85
2022-12-01T05:43:38.784Z,22.67
2022-12-01T05:46:08.761Z,27.58
2022-12-01T05:48:37.351Z,22.88
2022-12-01T05:51:10.031Z,22.92
2022-12-01T05:53:38.665Z,26.38
2022-12-01T05:56:08.591Z,27.00
2022-12-01T05:58:37.463Z,27.75
2022-12-01T06:01:06.224Z,24.95
2022-12-01T06:03:36.096Z,25.88
2022-12-01T06:06:04.852Z,29.10
2022-12-01T06:08:33.397Z,29.00
2022-12-01T06:11:02.163Z,23.20
2022-12-01T06:13:30.715Z,30.67
2022-12-01T06:16:00.561Z,26.55
2022-12-01T06:18:31.074Z,27.70
2022-12-01T06:21:01.194Z,28.52
2022-12-01T06:23:30.795Z,28.90
2022-12-01T06:25:59.759Z,28.33
2022-12-01T06:28:28.278Z,31.67
2022-12-01T06:31:02.746Z,28.15
2022-12-01T06:33:32.533Z,27.95
2022-12-01T06:36:04.197Z,31.40
2022-12-01T06:38:34.016Z,27.98
2022-12-01T06:41:02.982Z,29.75
2022-12-01T06:43:31.691Z,35.45
2022-12-01T06:46:02.283Z,28.90
2022-12-01T06:48:31.112Z,32.10
2022-12-01T06:51:00.279Z,31.48
2022-12-01T06:53:30.576Z,31.92
2022-12-01T06:56:01.744Z,32.53
2022-12-01T06:58:31.467Z,28.02
2022-12-01T07:01:00.322Z,27.55
2022-12-01T07:03:28.913Z,27.98
2022-12-01T07:05:58.771Z,31.48
2022-12-01T07:08:27.673Z,30.13
2022-12-01T07:11:01.670Z,34.42
2022-12-01T07:13:33.653Z,29.67
2022-12-01T07:16:03.317Z,30.05
2022-12-01T07:18:33.006Z,32.50
2022-12-01T07:21:02.175Z,26.33
2022-12-01T07:23:31.675Z,34.30
2022-12-01T07:26:03.025Z,27.90
2022-12-01T07:28:31.741Z,32.85
2022-12-01T07:31:05.033Z,29.35
2022-12-01T07:33:34.135Z,27.33
2022-12-01T07:36:02.878Z,28.77
2022-12-01T07:38:31.684Z,28.27
2022-12-01T07:41:05.468Z,29.80
2022-12-01T07:43:34.526Z,26.50
2022-12-01T07:46:06.528Z,26.15
2022-12-01T07:48:35.441Z,24.88
2022-12-01T07:51:04.621Z,26.63
2022-12-01T07:53:33.383Z,30.33
2022-12-01T07:56:06.912Z,28.55
2022-12-01T07:58:38.731Z,22.80
2022-12-01T08:01:08.433Z,27.75
2022-12-01T08:03:37.414Z,26.10
2022-12-01T08:06:07.464Z,27.33
2022-12-01T08:08:38.270Z,24.33
2022-12-01T08:11:09.294Z,27.48
2022-12-01T08:13:39.916Z,27.25
2022-12-01T08:16:10.254Z,22.63
2022-12-01T08:18:40.483Z,25.85
2022-12-01T08:21:11.689Z,24.45
2022-12-01T08:23:41.089Z,25.25
2022-12-01T08:26:13.892Z,22.85
2022-12-01T08:28:44.403Z,25.08
2022-12-01T08:31:16.766Z,31.02
2022-12-01T08:33:45.496Z,26.65
2022-12-01T08:36:14.218Z,26.00
2022-12-01T08:38:44.354Z,26.50
2022-12-01T08:41:13.468Z,26.90
2022-12-01T08:44:00.966Z,29.13
2022-12-01T08:46:33.237Z,26.45
2022-12-01T08:49:02.472Z,26.90
2022-12-01T08:51:31.385Z,27.05
2022-12-01T08:54:02.315Z,29.10
2022-12-01T08:56:32.868Z,32.47
2022-12-01T08:59:02.746Z,24.02
2022-12-01T09:01:32.545Z,27.52
2022-12-01T09:04:07.575Z,27.45
2022-12-01T09:06:40.422Z,25.67
2022-12-01T09:09:09.975Z,26.77
2022-12-01T09:11:39.289Z,26.35
2022-12-01T09:14:09.446Z,27.45
2022-12-01T09:16:38.247Z,30.65
2022-12-01T09:19:06.867Z,29.52
2022-12-01T09:21:37.320Z,23.40
2022-12-01T09:24:07.759Z,26.83
2022-12-01T09:26:36.372Z,27.38
2022-12-01T09:29:06.462Z,31.02
2022-12-01T09:31:37.203Z,31.42
2022-12-01T09:34:08.094Z,27.02
2022-12-01T09:36:38.011Z,32.97
2022-12-01T09:39:07.969Z,25.33
2022-12-01T09:41:40.508Z,25.92
2022-12-01T09:44:15.754Z,23.88
2022-12-01T09:46:49.336Z,24.20
2022-12-01T09:49:22.892Z,24.95
2022-12-01T09:51:53.686Z,24.23
2022-12-01T09:54:22.710Z,26.85
2022-12-01T09:56:55.462Z,25.92
2022-12-01T09:59:27.467Z,24.73
2022-12-01T10:02:01.854Z,26.48
2022-12-01T10:04:35.938Z,24.67
2022-12-01T10:07:07.535Z,25.38
2022-12-01T10:09:41.664Z,25.83
2022-12-01T10:12:15.632Z,23.60
2022-12-01T10:14:47.028Z,18.95
2022-12-01T10:17:29.191Z,23.45
2022-12-01T10:20:04.054Z,24.40
2022-12-01T10:22:54.322Z,20.42
2022-12-01T10:25:25.061Z,20.92
2022-12-01T10:28:07.787Z,17.85
2022-12-01T10:30:41.378Z,20.55
2022-12-01T10:33:22.238Z,18.98
2022-12-01T10:35:51.034Z,18.60
2022-12-01T10:38:28.043Z,16.70
2022-12-01T10:41:00.793Z,17.60
2022-12-01T10:43:33.642Z,16.20
2022-12-01T10:46:06.785Z,19.73
2022-12-01T10:48:53.768Z,13.90
2022-12-01T10:51:22.631Z,13.73
2022-12-01T10:53:58.407Z,14.20
2022-12-01T10:56:28.026Z,15.45
2022-12-01T10:58:59.244Z,13.65
2022-12-01T11:01:30.975Z,14.13
2022-12-01T11:04:06.711Z,14.48
2022-12-01T11:06:36.592Z,13.77
2022-12-01T11:09:07.865Z,12.93
2022-12-01T11:11:38.703Z,12.02
2022-12-01T11:14:21.440Z,14.32
2022-12-01T11:16:53.768Z,11.70
2022-12-01T11:19:30.697Z,13.27
2022-12-01T11:22:02.141Z,12.10
2022-12-01T11:24:46.376Z,12.15
2022-12-01T11:27:18.611Z,12.90
2022-12-01T11:29:49.850Z,13.10
2022-12-01T11:32:22.761Z,12.38
2022-12-01T11:34:56.629Z,11.75
2022-12-01T11:37:29.892Z,10.98
2022-12-01T11:40:14.354Z,11.35
2022-12-01T11:42:47.506Z,17.42
2022-12-01T11:45:28.964Z,13.10
2022-12-01T11:48:03.772Z,12.27
2022-12-01T11:50:36.520Z,11.70
2022-12-01T11:53:05.701Z,11.85
2022-12-01T11:55:34.268Z,12.70
2022-12-01T11:58:04.825Z,11.27
2022-12-01T12:00:44.278Z,10.07
2022-12-01T12:03:21.632Z,13.40
2022-12-01T12:06:11.686Z,13.85
2022-12-01T12:09:04.206Z,12.60
2022-12-01T12:11:41.011Z,13.45
2022-12-01T12:14:32.444Z,13.88
2022-12-01T12:17:20.579Z,11.23
2022-12-01T12:20:12.930Z,13.30
2022-12-01T12:22:56.476Z,12.80
2022-12-01T12:25:33.398Z,14.52
2022-12-01T12:28:17.827Z,16.63
2022-12-01T12:30:53.993Z,17.33
2022-12-01T12:33:39.942Z,17.20
2022-12-01T12:36:18.258Z,15.75
2022-12-01T12:39:00.815Z,20.40
2022-12-01T12:41:36.539Z,16.80
2022-12-01T12:44:19.012Z,19.85
2022-12-01T12:46:54.424Z,21.17
2022-12-01T12:49:37.345Z,21.30
2022-12-01T12:52:09.228Z,23.48
2022-12-01T12:54:46.344Z,22.33
2022-12-01T12:57:24.344Z,23.40
2022-12-01T12:59:58.770Z,21.90
2022-12-01T13:02:33.961Z,20.10
2022-12-01T13:05:07.789Z,22.73
2022-12-01T13:07:42.318Z,22.73
2022-12-01T13:10:23.135Z,21.27
2022-12-01T13:12:58.809Z,23.95
2022-12-01T13:15:29.891Z,22.42
2022-12-01T13:18:02.988Z,23.98
2022-12-01T13:20:34.406Z,22.85
2022-12-01T13:23:04.219Z,20.08
2022-12-01T13:25:38.145Z,24.35
2022-12-01T13:28:21.930Z,21.65
2022-12-01T13:31:05.165Z,20.85
2022-12-01T13:33:35.035Z,23.92
2022-12-01T13:39:05.544Z,22.33
2022-12-01T13:41:38.460Z,26.25
2022-12-01T13:44:13.404Z,25.58
2022-12-01T13:46:53.712Z,25.63
2022-12-01T13:49:42.303Z,24.50
2022-12-01T13:52:30.334Z,28.45
2022-12-01T13:55:25.725Z,25.38
2022-12-01T13:58:28.368Z,25.88
2022-12-01T14:01:41.665Z,26.55
2022-12-01T14:04:31.638Z,25.38
2022-12-01T14:07:27.655Z,30.45
2022-12-01T14:10:07.353Z,30.33
2022-12-01T14:12:37.901Z,28.90
2022-12-01T14:15:24.534Z,29.50
2022-12-01T14:18:02.133Z,32.50
2022-12-01T14:20:34.504Z,30.52
2022-12-01T14:23:14.847Z,31.48
2022-12-01T14:25:44.703Z,28.80
2022-12-01T14:28:16.918Z,31.67
2022-12-01T14:31:06.919Z,28.08
2022-12-01T14:33:59.083Z,31.13
2022-12-01T14:36:41.911Z,28.63
2022-12-01T14:39:14.384Z,34.92
2022-12-01T14:41:46.574Z,29.02
2022-12-01T14:44:23.228Z,30.60
2022-12-01T14:46:59.441Z,32.08
2022-12-01T14:49:32.439Z,34.17
2022-12-01T14:52:07.288Z,32.80
2022-12-01T14:54:44.578Z,33.15
2022-12-01T14:57:17.481Z,35.13
2022-12-01T14:59:46.321Z,30.15
2022-12-01T15:02:16.294Z,34.60
2022-12-01T15:05:07.484Z,36.80
2022-12-01T15:07:39.378Z,31.52
2022-12-01T15:10:18.572Z,31.70
2022-12-01T15:12:48.049Z,31.00
2022-12-01T15:15:23.586Z,29.42
2022-12-01T15:17:57.664Z,32.38
2022-12-01T15:20:31.286Z,29.95
2022-12-01T15:23:01.831Z,31.45
2022-12-01T15:25:35.604Z,35.17
2022-12-01T15:28:13.167Z,30.77
2022-12-01T15:30:42.680Z,29.45
2022-12-01T15:33:25.507Z,29.38
2022-12-01T15:35:56.626Z,32.47
2022-12-01T15:38:27.963Z,27.10
2022-12-01T15:43:55.951Z,32.70
2022-12-01T15:46:29.319Z,33.33
2022-12-01T15:49:09.624Z,33.63
2022-12-01T15:51:38.185Z,34.97
2022-12-01T15:54:07.009Z,34.17
2022-12-01T15:56:37.470Z,31.23
2022-12-01T15:59:13.601Z,33.05
2022-12-01T16:01:44.548Z,35.35
2022-12-01T16:04:20.540Z,32.42
2022-12-01T16:06:56.847Z,29.65
2022-12-01T16:09:30.790Z,31.48
2022-12-01T16:12:21.857Z,32.33
2022-12-01T16:14:53.599Z,36.78
2022-12-01T16:17:23.195Z,32.58
2022-12-01T16:20:17.481Z,29.30
2022-12-01T16:22:47.099Z,36.83
2022-12-01T16:25:21.884Z,35.05
2022-12-01T16:27:55.718Z,33.38
2022-12-01T16:30:26.799Z,30.83
2022-12-01T16:33:02.981Z,30.98
2022-12-01T16:35:34.783Z,37.22
2022-12-01T16:38:15.736Z,38.00
2022-12-01T16:40:44.587Z,31.60
2022-12-01T16:43:16.297Z,34.33
2022-12-01T16:45:45.806Z,35.80
2022-12-01T16:48:19.282Z,37.08
2022-12-01T16:50:50.004Z,36.50
2022-12-01T16:53:18.910Z,33.97
2022-12-01T16:55:50.778Z,32.30
2022-12-01T16:58:19.497Z,34.05
2022-12-01T17:00:52.434Z,34.22
2022-12-01T17:03:22.613Z,34.55
2022-12-01T17:05:53.602Z,31.70
2022-12-01T17:08:23.171Z,32.58
2022-12-01T17:10:52.814Z,34.28
2022-12-01T17:13:23.260Z,31.52
2022-12-01T17:15:54.555Z,30.77
2022-12-01T17:18:24.879Z,31.15
2022-12-01T17:21:02.463Z,36.63
2022-12-01T17:23:32.732Z,33.17
2022-12-01T17:26:01.977Z,35.85
2022-12-01T17:28:30.549Z,33.20
2022-12-01T17:31:01.217Z,33.67
2022-12-01T17:33:30.155Z,36.70
2022-12-01T17:36:02.507Z,32.38
2022-12-01T17:38:31.056Z,33.70
2022-12-01T17:41:04.800Z,31.30
2022-12-01T17:43:34.382Z,39.25
2022-12-01T17:46:03.525Z,33.92
2022-12-01T17:48:36.698Z,33.00
2022-12-01T17:51:07.327Z,34.15
2022-12-01T17:53:36.026Z,34.20
2022-12-01T17:56:08.240Z,33.20
2022-12-01T17:58:37.201Z,35.33
2022-12-01T18:01:06.876Z,36.33
2022-12-01T18:03:35.416Z,32.90
2022-12-01T18:06:03.946Z,34.05
2022-12-01T18:08:36.906Z,32.28
2022-12-01T18:11:08.052Z,37.00
2022-12-01T18:13:37.078Z,34.70
2022-12-01T18:16:08.632Z,34.35
2022-12-01T18:18:38.582Z,32.75
2022-12-01T18:21:07.838Z,31.52
2022-12-01T18:23:38.833Z,32.25
2022-12-01T18:26:15.475Z,30.13
2022-12-01T18:28:44.810Z,37.00
2022-12-01T18:31:15.229Z,34.25
2022-12-01T18:33:45.256Z,35.08
2022-12-01T18:36:18.413Z,36.33
2022-12-01T18:38:49.026Z,36.83
2022-12-01T18:41:18.923Z,35.00
2022-12-01T18:43:48.163Z,36.00
2022-12-01T18:46:18.144Z,33.45
2022-12-01T18:48:48.678Z,37.55
2022-12-01T18:51:17.770Z,33.05
2022-12-01T18:53:47.839Z,36.58
2022-12-01T18:56:17.316Z,35.47
2022-12-01T18:58:45.900Z,37.55
2022-12-01T19:01:22.199Z,39.95
2022-12-01T19:03:50.983Z,36.97
2022-12-01T19:06:19.831Z,37.17
2022-12-01T19:08:51.014Z,39.22
2022-12-01T19:11:19.668Z,37.80
2022-12-01T19:13:48.467Z,40.47
2022-12-01T19:16:19.218Z,36.05
2022-12-01T19:18:48.093Z,35.30
2022-12-01T19:21:18.935Z,34.40
2022-12-01T19:23:48.415Z,32.10
2022-12-01T19:26:21.222Z,37.50
2022-12-01T19:28:50.615Z,36.47
2022-12-01T19:31:22.598Z,39.15
2022-12-01T19:33:53.026Z,39.42
2022-12-01T19:36:23.989Z,37.80
2022-12-01T19:38:53.037Z,36.30
2022-12-01T19:41:25.176Z,35.35
2022-12-01T19:43:54.672Z,37.83
2022-12-01T19:46:25.636Z,39.90
2022-12-01T19:48:56.256Z,34.88
2022-12-01T19:51:27.071Z,34.55
2022-12-01T19:53:55.808Z,37.47
2022-12-01T19:56:25.954Z,37.13
2022-12-01T19:58:54.533Z,36.30
2022-12-01T20:01:23.138Z,40.15
2022-12-01T20:03:53.409Z,34.03
2022-12-01T20:06:23.930Z,35.45
2022-12-01T20:08:53.010Z,39.28
2022-12-01T20:11:21.618Z,38.47
2022-12-01T20:13:52.088Z,35.97
2022-12-01T20:16:22.564Z,35.72
2022-12-01T20:18:52.186Z,39.38
2022-12-01T20:21:23.114Z,33.55
2022-12-01T20:23:57.758Z,31.65
2022-12-01T20:26:30.815Z,33.78
2022-12-01T20:29:04.495Z,33.10
2022-12-01T20:31:34.207Z,41.28
2022-12-01T20:34:06.827Z,36.22
2022-12-01T20:36:36.265Z,35.65
2022-12-01T20:39:05.991Z,36.17
2022-12-01T20:41:34.584Z,35.65
2022-12-01T20:44:07.538Z,39.22
2022-12-01T20:46:37.752Z,35.95
2022-12-01T20:49:06.510Z,38.63
2022-12-01T20:51:35.672Z,37.40
2022-12-01T20:54:27.366Z,37.80
2022-12-01T20:56:54.735Z,35.83
2022-12-01T20:59:24.748Z,36.22
2022-12-01T21:01:53.334Z,36.42
2022-12-01T21:04:22.104Z,35.13
2022-12-01T21:06:50.941Z,33.28
2022-12-01T21:09:19.411Z,35.78
2022-12-01T21:12:07.392Z,35.33
2022-12-01T21:14:42.351Z,35.38
2022-12-01T21:17:22.461Z,36.55
2022-12-01T21:19:57.304Z,34.65
2022-12-01T21:22:26.513Z,34.25
2022-12-01T21:25:06.856Z,33.17
2022-12-01T21:27:35.652Z,33.40
2022-12-01T21:30:14.992Z,33.08
2022-12-01T21:33:17.102Z,31.60
2022-12-01T21:37:14.484Z,33.70
2022-12-01T21:39:43.628Z,33.03
2022-12-01T21:42:18.775Z,35.13
2022-12-01T21:44:47.494Z,37.47
2022-12-01T21:47:21.509Z,34.25
2022-12-01T21:49:53.399Z,35.25
2022-12-01T21:52:25.026Z,31.33
2022-12-01T21:54:53.831Z,36.83
2022-12-01T21:57:42.737Z,34.80
2022-12-01T22:00:27.582Z,32.55
2022-12-01T22:03:16.813Z,31.70
2022-12-01T22:06:06.908Z,34.90
2022-12-01T22:08:37.334Z,30.55
2022-12-01T22:11:12.245Z,35.70
2022-12-01T22:13:43.497Z,32.80
2022-12-01T22:16:19.992Z,31.42
2022-12-01T22:18:52.435Z,33.95
2022-12-01T22:21:37.023Z,32.28
2022-12-01T22:24:26.053Z,29.67
2022-12-01T22:27:30.315Z,34.17
2022-12-01T22:30:02.405Z,28.20
2022-12-01T22:32:39.443Z,34.22
2022-12-01T22:35:25.442Z,33.45
2022-12-01T22:37:59.147Z,30.50
2022-12-01T22:40:41.641Z,32.95
2022-12-01T22:43:34.063Z,32.85
2022-12-01T22:46:24.898Z,31.15
2022-12-01T22:48:55.203Z,32.95
2022-12-01T22:51:40.551Z,33.83
2022-12-01T22:54:28.057Z,34.33
2022-12-01T22:57:26.427Z,30.50
2022-12-01T22:59:56.002Z,30.92
2022-12-01T23:02:27.663Z,34.63
2022-12-01T23:04:59.388Z,30.15
2022-12-01T23:07:32.706Z,28.67
2022-12-01T23:10:08.961Z,34.03
2022-12-01T23:12:38.741Z,29.98
2022-12-01T23:15:22.160Z,31.90
2022-12-01T23:17:51.215Z,29.67
2022-12-01T23:20:28.110Z,28.88
2022-12-01T23:22:59.818Z,27.15
2022-12-01T23:25:29.283Z,28.63
2022-12-01T23:28:01.055Z,25.67
2022-12-01T23:30:29.655Z,28.10
2022-12-01T23:33:15.311Z,26.45
2022-12-01T23:35:48.370Z,29.45
2022-12-01T23:38:21.073Z,28.77
2022-12-01T23:40:51.048Z,25.23
2022-12-01T23:43:26.209Z,24.30
2022-12-01T23:46:04.069Z,22.67
2022-12-01T23:48:35.991Z,25.48
2022-12-01T23:51:05.279Z,20.63
2022-12-01T23:53:35.216Z,23.65
2022-12-01T23:56:08.197Z,23.52
2022-12-01T23:58:36.979Z,22.13
